sensor_id;sensor_type;location;lat;lon;timestamp;pressure;altitude;pressure_sealevel;temperature;humidity
64683;BME280;51107;47.652;19.016;2023-02-21T00:02:39;99803.44;;;8.33;67.52
64683;BME280;51107;47.652;19.016;2023-02-21T00:05:26;99794.31;;;8.49;66.66
64683;BME280;51107;47.652;19.016;2023-02-21T00:08:13;99793.56;;;8.18;67.52
64683;BME280;51107;47.652;19.016;2023-02-21T00:11:00;99796.66;;;7.92;68.16
64683;BME280;51107;47.652;19.016;2023-02-21T00:13:49;99793.53;;;7.88;68.60
64683;BME280;51107;47.652;19.016;2023-02-21T00:16:36;99796.66;;;7.92;67.23
64683;BME280;51107;47.652;19.016;2023-02-21T00:19:23;99804.50;;;8.11;67.34
64683;BME280;51107;47.652;19.016;2023-02-21T00:22:10;99792.19;;;8.04;66.60
64683;BME280;51107;47.652;19.016;2023-02-21T00:24:56;99789.00;;;7.90;68.66
64683;BME280;51107;47.652;19.016;2023-02-21T00:27:44;99777.78;;;8.50;65.28
64683;BME280;51107;47.652;19.016;2023-02-21T00:30:30;99783.25;;;8.66;64.47
64683;BME280;51107;47.652;19.016;2023-02-21T00:33:17;99778.41;;;8.81;63.56
64683;BME280;51107;47.652;19.016;2023-02-21T00:36:04;99788.94;;;8.90;63.10
64683;BME280;51107;47.652;19.016;2023-02-21T00:38:52;99791.66;;;8.98;63.31
64683;BME280;51107;47.652;19.016;2023-02-21T00:41:39;99790.22;;;9.33;61.63
64683;BME280;51107;47.652;19.016;2023-02-21T00:44:26;99790.47;;;9.40;61.25
64683;BME280;51107;47.652;19.016;2023-02-21T00:47:12;99788.06;;;9.18;62.46
64683;BME280;51107;47.652;19.016;2023-02-21T00:50:00;99778.22;;;9.22;62.94
64683;BME280;51107;47.652;19.016;2023-02-21T00:52:46;99784.91;;;9.25;63.25
64683;BME280;51107;47.652;19.016;2023-02-21T00:55:34;99781.25;;;9.17;63.36
64683;BME280;51107;47.652;19.016;2023-02-21T00:58:21;99784.69;;;9.08;63.30
64683;BME280;51107;47.652;19.016;2023-02-21T01:01:08;99785.38;;;8.91;65.28
64683;BME280;51107;47.652;19.016;2023-02-21T01:03:57;99800.03;;;8.92;63.94
64683;BME280;51107;47.652;19.016;2023-02-21T01:06:49;99797.72;;;8.89;64.28
64683;BME280;51107;47.652;19.016;2023-02-21T01:09:36;99790.38;;;9.31;62.70
64683;BME280;51107;47.652;19.016;2023-02-21T01:12:23;99790.09;;;9.25;62.62
64683;BME280;51107;47.652;19.016;2023-02-21T01:15:10;99780.50;;;9.25;62.76
64683;BME280;51107;47.652;19.016;2023-02-21T01:17:57;99782.88;;;9.09;63.01
64683;BME280;51107;47.652;19.016;2023-02-21T01:20:44;99777.84;;;9.07;63.33
64683;BME280;51107;47.652;19.016;2023-02-21T01:23:33;99777.44;;;9.12;62.75
64683;BME280;51107;47.652;19.016;2023-02-21T01:26:20;99771.31;;;8.93;63.77
64683;BME280;51107;47.652;19.016;2023-02-21T01:29:07;99775.69;;;8.73;64.54
64683;BME280;51107;47.652;19.016;2023-02-21T01:31:54;99766.97;;;8.45;66.24
64683;BME280;51107;47.652;19.016;2023-02-21T01:34:42;99779.66;;;8.38;65.91
64683;BME280;51107;47.652;19.016;2023-02-21T01:37:28;99777.19;;;8.17;66.75
64683;BME280;51107;47.652;19.016;2023-02-21T01:40:17;99769.78;;;8.12;67.39
64683;BME280;51107;47.652;19.016;2023-02-21T01:43:26;99774.59;;;8.07;69.54
64683;BME280;51107;47.652;19.016;2023-02-21T01:46:18;99769.59;;;7.85;70.51
64683;BME280;51107;47.652;19.016;2023-02-21T01:49:11;99759.47;;;7.72;70.37
64683;BME280;51107;47.652;19.016;2023-02-21T01:52:00;99764.72;;;7.51;70.77
64683;BME280;51107;47.652;19.016;2023-02-21T01:54:49;99752.53;;;7.31;70.77
64683;BME280;51107;47.652;19.016;2023-02-21T01:57:38;99746.56;;;8.01;68.54
64683;BME280;51107;47.652;19.016;2023-02-21T02:00:26;99745.91;;;8.09;67.35
64683;BME280;51107;47.652;19.016;2023-02-21T02:03:16;99748.87;;;7.94;68.56
64683;BME280;51107;47.652;19.016;2023-02-21T02:06:08;99748.19;;;7.82;69.06
64683;BME280;51107;47.652;19.016;2023-02-21T02:08:56;99748.25;;;7.61;69.35
64683;BME280;51107;47.652;19.016;2023-02-21T02:12:14;99745.31;;;7.45;71.22
64683;BME280;51107;47.652;19.016;2023-02-21T02:35:08;99732.31;;;6.52;75.42
64683;BME280;51107;47.652;19.016;2023-02-21T02:45:46;99706.16;;;6.97;73.07
64683;BME280;51107;47.652;19.016;2023-02-21T02:48:27;99711.41;;;6.86;74.40
64683;BME280;51107;47.652;19.016;2023-02-21T02:51:00;99716.63;;;6.96;74.92
64683;BME280;51107;47.652;19.016;2023-02-21T02:53:30;99724.66;;;7.24;72.91
64683;BME280;51107;47.652;19.016;2023-02-21T02:56:10;99728.84;;;7.46;72.34
64683;BME280;51107;47.652;19.016;2023-02-21T02:58:53;99719.25;;;8.16;68.78
64683;BME280;51107;47.652;19.016;2023-02-21T03:12:59;99720.19;;;8.84;65.71
64683;BME280;51107;47.652;19.016;2023-02-21T03:16:01;99733.34;;;8.73;66.36
64683;BME280;51107;47.652;19.016;2023-02-21T03:18:42;99731.16;;;8.68;66.37
64683;BME280;51107;47.652;19.016;2023-02-21T03:21:17;99737.75;;;8.62;66.71
64683;BME280;51107;47.652;19.016;2023-02-21T03:23:50;99740.56;;;8.69;67.01
64683;BME280;51107;47.652;19.016;2023-02-21T03:26:19;99725.81;;;8.79;66.34
64683;BME280;51107;47.652;19.016;2023-02-21T03:28:49;99726.78;;;8.59;67.45
64683;BME280;51107;47.652;19.016;2023-02-21T03:31:20;99722.56;;;8.58;66.65
64683;BME280;51107;47.652;19.016;2023-02-21T03:33:52;99735.25;;;8.31;67.76
64683;BME280;51107;47.652;19.016;2023-02-21T03:36:21;99740.00;;;8.07;68.85
64683;BME280;51107;47.652;19.016;2023-02-21T03:38:50;99746.97;;;7.87;69.97
64683;BME280;51107;47.652;19.016;2023-02-21T03:41:19;99747.69;;;7.48;71.36
64683;BME280;51107;47.652;19.016;2023-02-21T03:43:47;99751.91;;;7.49;72.62
64683;BME280;51107;47.652;19.016;2023-02-21T03:46:16;99745.03;;;7.38;72.36
64683;BME280;51107;47.652;19.016;2023-02-21T03:48:44;99733.63;;;7.51;72.66
64683;BME280;51107;47.652;19.016;2023-02-21T03:51:13;99742.53;;;7.58;71.99
64683;BME280;51107;47.652;19.016;2023-02-21T03:53:42;99728.16;;;7.44;71.80
64683;BME280;51107;47.652;19.016;2023-02-21T03:56:11;99742.16;;;7.31;73.55
64683;BME280;51107;47.652;19.016;2023-02-21T03:58:41;99736.31;;;7.08;73.26
64683;BME280;51107;47.652;19.016;2023-02-21T04:01:10;99747.75;;;7.37;73.33
64683;BME280;51107;47.652;19.016;2023-02-21T04:03:38;99737.31;;;7.48;73.22
64683;BME280;51107;47.652;19.016;2023-02-21T04:06:07;99744.63;;;7.33;73.19
64683;BME280;51107;47.652;19.016;2023-02-21T04:08:35;99746.78;;;7.28;73.04
64683;BME280;51107;47.652;19.016;2023-02-21T04:11:04;99739.56;;;7.72;71.15
64683;BME280;51107;47.652;19.016;2023-02-21T04:13:33;99746.94;;;7.77;70.83
64683;BME280;51107;47.652;19.016;2023-02-21T04:16:01;99760.25;;;8.23;69.04
64683;BME280;51107;47.652;19.016;2023-02-21T04:18:31;99750.28;;;8.38;68.64
64683;BME280;51107;47.652;19.016;2023-02-21T04:21:00;99748.09;;;8.13;69.33
64683;BME280;51107;47.652;19.016;2023-02-21T04:23:28;99754.91;;;7.95;69.99
64683;BME280;51107;47.652;19.016;2023-02-21T04:25:57;99744.41;;;8.06;69.80
64683;BME280;51107;47.652;19.016;2023-02-21T04:28:26;99744.41;;;8.16;nan
64683;BME280;51107;47.652;19.016;2023-02-21T04:30:54;99738.25;;;8.37;68.72
64683;BME280;51107;47.652;19.016;2023-02-21T04:33:28;99745.78;;;8.49;67.80
64683;BME280;51107;47.652;19.016;2023-02-21T04:35:56;99737.03;;;8.21;68.74
64683;BME280;51107;47.652;19.016;2023-02-21T04:38:25;99749.56;;;7.96;69.65
64683;BME280;51107;47.652;19.016;2023-02-21T04:40:54;99752.31;;;7.95;71.16
64683;BME280;51107;47.652;19.016;2023-02-21T04:43:23;99749.16;;;8.11;69.99
64683;BME280;51107;47.652;19.016;2023-02-21T04:45:52;99753.41;;;8.02;69.99
64683;BME280;51107;47.652;19.016;2023-02-21T04:48:20;99744.75;;;7.82;71.49
64683;BME280;51107;47.652;19.016;2023-02-21T04:50:48;99750.53;;;8.05;69.18
64683;BME280;51107;47.652;19.016;2023-02-21T04:53:17;99753.69;;;8.38;68.49
64683;BME280;51107;47.652;19.016;2023-02-21T04:55:45;99751.91;;;8.29;69.05
64683;BME280;51107;47.652;19.016;2023-02-21T04:58:13;99749.06;;;8.32;68.47
64683;BME280;51107;47.652;19.016;2023-02-21T05:00:42;99744.41;;;8.26;68.65
64683;BME280;51107;47.652;19.016;2023-02-21T05:03:10;99738.78;;;8.11;71.03
64683;BME280;51107;47.652;19.016;2023-02-21T05:05:38;99736.63;;;8.26;68.94
64683;BME280;51107;47.652;19.016;2023-02-21T05:08:06;99734.44;;;8.31;68.58
64683;BME280;51107;47.652;19.016;2023-02-21T05:10:35;99739.06;;;7.98;69.69
64683;BME280;51107;47.652;19.016;2023-02-21T05:13:13;99737.84;;;8.12;70.04
64683;BME280;51107;47.652;19.016;2023-02-21T05:15:42;99742.03;;;7.83;71.28
64683;BME280;51107;47.652;19.016;2023-02-21T05:18:10;99740.66;;;7.79;71.74
64683;BME280;51107;47.652;19.016;2023-02-21T05:20:38;99740.72;;;7.99;70.36
64683;BME280;51107;47.652;19.016;2023-02-21T05:23:07;99739.59;;;7.92;70.44
64683;BME280;51107;47.652;19.016;2023-02-21T05:25:41;99732.88;;;7.79;70.90
64683;BME280;51107;47.652;19.016;2023-02-21T05:28:09;99721.38;;;7.62;71.85
64683;BME280;51107;47.652;19.016;2023-02-21T05:30:37;99732.44;;;7.64;71.83
64683;BME280;51107;47.652;19.016;2023-02-21T05:33:06;99720.47;;;7.83;71.03
64683;BME280;51107;47.652;19.016;2023-02-21T05:35:35;99729.19;;;7.72;71.67
64683;BME280;51107;47.652;19.016;2023-02-21T05:38:03;99722.62;;;7.68;72.54
64683;BME280;51107;47.652;19.016;2023-02-21T05:40:32;99719.59;;;7.63;72.80
64683;BME280;51107;47.652;19.016;2023-02-21T05:43:00;99718.06;;;7.51;72.47
64683;BME280;51107;47.652;19.016;2023-02-21T05:45:29;99715.44;;;7.41;73.09
64683;BME280;51107;47.652;19.016;2023-02-21T05:47:58;99704.00;;;7.43;73.06
64683;BME280;51107;47.652;19.016;2023-02-21T05:50:29;99706.13;;;7.28;73.70
64683;BME280;51107;47.652;19.016;2023-02-21T05:52:58;99704.16;;;7.11;74.68
64683;BME280;51107;47.652;19.016;2023-02-21T05:55:27;99711.28;;;7.19;76.02
64683;BME280;51107;47.652;19.016;2023-02-21T05:57:56;99706.88;;;7.09;75.30
64683;BME280;51107;47.652;19.016;2023-02-21T06:00:27;99716.16;;;7.12;74.96
64683;BME280;51107;47.652;19.016;2023-02-21T06:02:56;99711.87;;;7.32;74.66
64683;BME280;51107;47.652;19.016;2023-02-21T06:05:25;99704.78;;;7.34;74.28
64683;BME280;51107;47.652;19.016;2023-02-21T06:07:53;99702.31;;;7.32;74.95
64683;BME280;51107;47.652;19.016;2023-02-21T06:10:22;99705.63;;;7.35;74.77
64683;BME280;51107;47.652;19.016;2023-02-21T06:12:50;99709.41;;;7.30;76.33
64683;BME280;51107;47.652;19.016;2023-02-21T06:15:18;99727.37;;;7.22;76.74
64683;BME280;51107;47.652;19.016;2023-02-21T06:17:47;99725.75;;;7.21;76.68
64683;BME280;51107;47.652;19.016;2023-02-21T06:20:16;99733.56;;;7.31;75.64
64683;BME280;51107;47.652;19.016;2023-02-21T06:22:44;99738.41;;;7.45;76.17
64683;BME280;51107;47.652;19.016;2023-02-21T06:25:13;99730.03;;;7.73;73.83
64683;BME280;51107;47.652;19.016;2023-02-21T06:27:41;99748.31;;;7.81;75.27
64683;BME280;51107;47.652;19.016;2023-02-21T06:30:13;99746.34;;;8.24;73.05
64683;BME280;51107;47.652;19.016;2023-02-21T06:32:42;99748.50;;;8.67;70.05
64683;BME280;51107;47.652;19.016;2023-02-21T06:35:11;99741.81;;;8.65;71.45
64683;BME280;51107;47.652;19.016;2023-02-21T06:37:39;99752.13;;;9.04;68.33
64683;BME280;51107;47.652;19.016;2023-02-21T06:40:08;99761.38;;;9.26;67.97
64683;BME280;51107;47.652;19.016;2023-02-21T06:42:38;99751.19;;;9.43;67.77
64683;BME280;51107;47.652;19.016;2023-02-21T06:45:06;99755.91;;;9.57;65.91
64683;BME280;51107;47.652;19.016;2023-02-21T06:47:35;99761.00;;;9.77;65.13
64683;BME280;51107;47.652;19.016;2023-02-21T06:50:04;99760.31;;;9.75;66.41
64683;BME280;51107;47.652;19.016;2023-02-21T06:52:32;99759.16;;;9.87;65.05
64683;BME280;51107;47.652;19.016;2023-02-21T06:55:01;99758.28;;;9.96;64.57
64683;BME280;51107;47.652;19.016;2023-02-21T06:57:30;99750.91;;;9.92;65.33
64683;BME280;51107;47.652;19.016;2023-02-21T06:59:58;99761.62;;;10.07;64.39
64683;BME280;51107;47.652;19.016;2023-02-21T07:02:32;99767.88;;;9.96;65.64
64683;BME280;51107;47.652;19.016;2023-02-21T07:05:00;99769.81;;;9.94;65.57
64683;BME280;51107;47.652;19.016;2023-02-21T07:07:29;99774.16;;;10.03;65.60
64683;BME280;51107;47.652;19.016;2023-02-21T07:10:00;99771.53;;;10.03;65.72
64683;BME280;51107;47.652;19.016;2023-02-21T07:12:28;99778.97;;;10.16;65.03
64683;BME280;51107;47.652;19.016;2023-02-21T07:14:57;99778.16;;;10.15;65.05
64683;BME280;51107;47.652;19.016;2023-02-21T07:17:25;99783.00;;;10.28;63.95
64683;BME280;51107;47.652;19.016;2023-02-21T07:19:54;99774.56;;;10.16;64.65
64683;BME280;51107;47.652;19.016;2023-02-21T07:22:22;99785.00;;;10.16;65.37
64683;BME280;51107;47.652;19.016;2023-02-21T07:24:55;99789.84;;;10.11;65.04
64683;BME280;51107;47.652;19.016;2023-02-21T07:27:23;99789.09;;;10.19;64.38
64683;BME280;51107;47.652;19.016;2023-02-21T07:29:52;99788.50;;;10.25;64.41
64683;BME280;51107;47.652;19.016;2023-02-21T07:32:20;99803.09;;;10.18;64.26
64683;BME280;51107;47.652;19.016;2023-02-21T07:34:49;99794.22;;;10.29;64.05
64683;BME280;51107;47.652;19.016;2023-02-21T07:37:17;99799.16;;;10.32;64.02
64683;BME280;51107;47.652;19.016;2023-02-21T07:39:46;99791.62;;;10.29;64.17
64683;BME280;51107;47.652;19.016;2023-02-21T07:42:14;99791.59;;;10.39;63.08
64683;BME280;51107;47.652;19.016;2023-02-21T07:44:45;99795.97;;;10.38;63.03
64683;BME280;51107;47.652;19.016;2023-02-21T07:47:13;99791.88;;;10.53;63.03
64683;BME280;51107;47.652;19.016;2023-02-21T07:49:42;99797.94;;;10.54;62.85
64683;BME280;51107;47.652;19.016;2023-02-21T07:52:10;99794.22;;;10.57;62.63
64683;BME280;51107;47.652;19.016;2023-02-21T07:54:38;99795.25;;;10.64;61.81
64683;BME280;51107;47.652;19.016;2023-02-21T07:57:07;99799.03;;;10.69;62.19
64683;BME280;51107;47.652;19.016;2023-02-21T07:59:35;99794.19;;;10.75;61.65
64683;BME280;51107;47.652;19.016;2023-02-21T08:02:04;99786.94;;;10.86;62.45
64683;BME280;51107;47.652;19.016;2023-02-21T08:04:33;99778.72;;;10.99;61.47
64683;BME280;51107;47.652;19.016;2023-02-21T08:07:02;99775.50;;;11.05;60.93
64683;BME280;51107;47.652;19.016;2023-02-21T08:09:31;99771.59;;;11.36;60.15
64683;BME280;51107;47.652;19.016;2023-02-21T08:12:01;99759.25;;;11.46;60.74
64683;BME280;51107;47.652;19.016;2023-02-21T08:14:29;99772.66;;;11.60;60.50
64683;BME280;51107;47.652;19.016;2023-02-21T08:16:58;99785.25;;;12.07;58.03
64683;BME280;51107;47.652;19.016;2023-02-21T08:19:27;99776.78;;;12.21;57.22
64683;BME280;51107;47.652;19.016;2023-02-21T08:21:55;99768.31;;;12.19;58.63
64683;BME280;51107;47.652;19.016;2023-02-21T08:24:23;99779.41;;;12.38;57.44
64683;BME280;51107;47.652;19.016;2023-02-21T08:26:52;99784.19;;;12.76;55.73
64683;BME280;51107;47.652;19.016;2023-02-21T08:29:20;99790.84;;;12.70;58.52
64683;BME280;51107;47.652;19.016;2023-02-21T08:31:48;99798.06;;;12.68;56.21
64683;BME280;51107;47.652;19.016;2023-02-21T08:34:17;99770.09;;;12.93;55.81
64683;BME280;51107;47.652;19.016;2023-02-21T08:36:45;99784.78;;;13.11;55.74
64683;BME280;51107;47.652;19.016;2023-02-21T08:39:14;99778.81;;;13.41;54.77
64683;BME280;51107;47.652;19.016;2023-02-21T08:41:44;99791.72;;;13.51;55.27
64683;BME280;51107;47.652;19.016;2023-02-21T08:44:15;99796.75;;;13.61;54.47
64683;BME280;51107;47.652;19.016;2023-02-21T08:46:43;99801.97;;;13.69;54.58
64683;BME280;51107;47.652;19.016;2023-02-21T08:49:12;99800.66;;;13.97;53.54
64683;BME280;51107;47.652;19.016;2023-02-21T08:51:41;99793.50;;;13.90;53.05
64683;BME280;51107;47.652;19.016;2023-02-21T08:54:10;99782.94;;;14.07;54.07
64683;BME280;51107;47.652;19.016;2023-02-21T08:56:38;99782.25;;;14.36;52.85
64683;BME280;51107;47.652;19.016;2023-02-21T08:59:06;99789.13;;;14.60;52.82
64683;BME280;51107;47.652;19.016;2023-02-21T09:01:36;99791.16;;;14.50;52.93
64683;BME280;51107;47.652;19.016;2023-02-21T09:04:04;99785.06;;;14.58;52.10
64683;BME280;51107;47.652;19.016;2023-02-21T09:06:32;99790.47;;;14.56;52.43
64683;BME280;51107;47.652;19.016;2023-02-21T09:09:01;99787.16;;;14.39;52.99
64683;BME280;51107;47.652;19.016;2023-02-21T09:11:30;99789.94;;;14.38;52.97
64683;BME280;51107;47.652;19.016;2023-02-21T09:13:58;99778.66;;;14.60;52.45
64683;BME280;51107;47.652;19.016;2023-02-21T09:16:27;99768.84;;;14.77;51.84
64683;BME280;51107;47.652;19.016;2023-02-21T09:18:58;99778.41;;;14.47;52.41
64683;BME280;51107;47.652;19.016;2023-02-21T09:21:27;99779.56;;;14.91;51.33
64683;BME280;51107;47.652;19.016;2023-02-21T09:23:56;99784.47;;;14.71;51.11
64683;BME280;51107;47.652;19.016;2023-02-21T09:26:26;99779.94;;;15.33;51.82
64683;BME280;51107;47.652;19.016;2023-02-21T09:28:56;99785.28;;;15.54;49.95
64683;BME280;51107;47.652;19.016;2023-02-21T09:31:25;99789.53;;;15.40;50.88
64683;BME280;51107;47.652;19.016;2023-02-21T09:33:53;99781.91;;;15.60;51.17
64683;BME280;51107;47.652;19.016;2023-02-21T09:36:21;99789.25;;;15.65;49.69
64683;BME280;51107;47.652;19.016;2023-02-21T09:38:51;99784.19;;;15.63;51.80
64683;BME280;51107;47.652;19.016;2023-02-21T09:41:19;99792.41;;;15.60;50.40
64683;BME280;51107;47.652;19.016;2023-02-21T09:43:50;99799.88;;;16.30;51.42
64683;BME280;51107;47.652;19.016;2023-02-21T09:46:30;99790.97;;;16.53;49.07
64683;BME280;51107;47.652;19.016;2023-02-21T09:49:02;99792.69;;;16.39;49.36
64683;BME280;51107;47.652;19.016;2023-02-21T09:51:31;99810.03;;;16.83;47.45
64683;BME280;51107;47.652;19.016;2023-02-21T09:54:04;99803.69;;;16.71;48.70
64683;BME280;51107;47.652;19.016;2023-02-21T09:56:35;99802.00;;;16.63;49.23
64683;BME280;51107;47.652;19.016;2023-02-21T09:59:11;99808.31;;;16.69;49.50
64683;BME280;51107;47.652;19.016;2023-02-21T10:07:20;99811.28;;;16.80;48.36
64683;BME280;51107;47.652;19.016;2023-02-21T10:09:58;99803.00;;;16.84;49.03
64683;BME280;51107;47.652;19.016;2023-02-21T10:12:31;99791.88;;;16.88;48.57
64683;BME280;51107;47.652;19.016;2023-02-21T10:20:51;99803.59;;;16.57;49.20
64683;BME280;51107;47.652;19.016;2023-02-21T10:23:41;99802.31;;;16.10;50.39
64683;BME280;51107;47.652;19.016;2023-02-21T10:26:15;99804.91;;;16.46;50.21
64683;BME280;51107;47.652;19.016;2023-02-21T10:28:45;99800.03;;;16.43;49.93
64683;BME280;51107;47.652;19.016;2023-02-21T10:31:24;99795.31;;;16.60;49.16
64683;BME280;51107;47.652;19.016;2023-02-21T10:33:57;99794.03;;;15.91;51.18
64683;BME280;51107;47.652;19.016;2023-02-21T10:36:27;99791.66;;;16.18;50.58
64683;BME280;51107;47.652;19.016;2023-02-21T10:39:09;99786.50;;;16.25;51.05
64683;BME280;51107;47.652;19.016;2023-02-21T10:41:41;99794.66;;;16.80;48.92
64683;BME280;51107;47.652;19.016;2023-02-21T10:44:13;99783.16;;;16.59;49.66
64683;BME280;51107;47.652;19.016;2023-02-21T10:46:46;99787.22;;;16.40;50.05
64683;BME280;51107;47.652;19.016;2023-02-21T10:49:22;99792.00;;;16.52;49.37
64683;BME280;51107;47.652;19.016;2023-02-21T10:52:11;99787.03;;;16.63;49.50
64683;BME280;51107;47.652;19.016;2023-02-21T10:54:40;99762.56;;;16.20;50.68
64683;BME280;51107;47.652;19.016;2023-02-21T10:57:10;99771.78;;;16.30;50.97
64683;BME280;51107;47.652;19.016;2023-02-21T10:59:47;99765.00;;;16.64;49.44
64683;BME280;51107;47.652;19.016;2023-02-21T11:02:38;99772.94;;;16.21;50.80
64683;BME280;51107;47.652;19.016;2023-02-21T11:05:16;99770.97;;;16.30;50.31
64683;BME280;51107;47.652;19.016;2023-02-21T11:08:14;99748.25;;;16.22;49.79
64683;BME280;51107;47.652;19.016;2023-02-21T11:10:43;99727.94;;;16.31;50.17
64683;BME280;51107;47.652;19.016;2023-02-21T11:13:15;99740.59;;;16.06;51.31
64683;BME280;51107;47.652;19.016;2023-02-21T11:15:44;99728.06;;;16.23;50.91
64683;BME280;51107;47.652;19.016;2023-02-21T11:18:21;99733.72;;;16.26;51.47
64683;BME280;51107;47.652;19.016;2023-02-21T11:20:52;99733.38;;;16.58;51.93
64683;BME280;51107;47.652;19.016;2023-02-21T11:23:29;99742.09;;;16.87;48.97
64683;BME280;51107;47.652;19.016;2023-02-21T11:26:08;99733.03;;;15.96;51.24
64683;BME280;51107;47.652;19.016;2023-02-21T11:28:39;99737.25;;;16.34;50.60
64683;BME280;51107;47.652;19.016;2023-02-21T11:31:26;99728.84;;;16.45;50.87
64683;BME280;51107;47.652;19.016;2023-02-21T11:34:04;99739.31;;;16.17;51.13
64683;BME280;51107;47.652;19.016;2023-02-21T11:36:38;99736.72;;;16.45;51.62
64683;BME280;51107;47.652;19.016;2023-02-21T11:39:24;99744.50;;;16.32;52.33
64683;BME280;51107;47.652;19.016;2023-02-21T11:42:00;99738.97;;;16.48;51.40
64683;BME280;51107;47.652;19.016;2023-02-21T11:44:34;99735.56;;;15.68;52.90
64683;BME280;51107;47.652;19.016;2023-02-21T11:47:27;99733.72;;;16.26;53.34
64683;BME280;51107;47.652;19.016;2023-02-21T11:55:25;99727.09;;;16.30;51.07
64683;BME280;51107;47.652;19.016;2023-02-21T11:58:18;99721.41;;;15.17;53.26
64683;BME280;51107;47.652;19.016;2023-02-21T12:01:04;99716.84;;;15.41;52.68
64683;BME280;51107;47.652;19.016;2023-02-21T12:03:57;99728.19;;;15.41;54.08
64683;BME280;51107;47.652;19.016;2023-02-21T12:12:31;99721.03;;;15.20;54.95
64683;BME280;51107;47.652;19.016;2023-02-21T12:15:18;99742.37;;;15.02;55.81
64683;BME280;51107;47.652;19.016;2023-02-21T12:17:51;99738.41;;;14.53;56.20
64683;BME280;51107;47.652;19.016;2023-02-21T12:20:52;99754.03;;;14.47;57.02
64683;BME280;51107;47.652;19.016;2023-02-21T12:40:28;99757.66;;;13.91;60.02
64683;BME280;51107;47.652;19.016;2023-02-21T12:48:41;99752.09;;;13.63;61.33
64683;BME280;51107;47.652;19.016;2023-02-21T12:51:19;99756.75;;;13.75;60.98
64683;BME280;51107;47.652;19.016;2023-02-21T12:54:03;99754.81;;;14.01;58.87
64683;BME280;51107;47.652;19.016;2023-02-21T12:57:21;99754.09;;;14.15;58.34
64683;BME280;51107;47.652;19.016;2023-02-21T13:00:16;99751.22;;;14.02;58.62
64683;BME280;51107;47.652;19.016;2023-02-21T13:05:54;99753.69;;;13.72;59.98
64683;BME280;51107;47.652;19.016;2023-02-21T13:11:18;99745.56;;;13.58;60.99
64683;BME280;51107;47.652;19.016;2023-02-21T13:13:49;99735.09;;;13.58;60.05
64683;BME280;51107;47.652;19.016;2023-02-21T13:16:18;99749.09;;;13.74;60.02
64683;BME280;51107;47.652;19.016;2023-02-21T13:19:03;99737.09;;;13.48;61.35
64683;BME280;51107;47.652;19.016;2023-02-21T13:24:14;99735.75;;;13.52;60.45
64683;BME280;51107;47.652;19.016;2023-02-21T13:29:31;99729.78;;;13.35;61.74
64683;BME280;51107;47.652;19.016;2023-02-21T13:32:07;99722.75;;;13.36;60.92
64683;BME280;51107;47.652;19.016;2023-02-21T13:34:39;99729.47;;;13.22;61.64
64683;BME280;51107;47.652;19.016;2023-02-21T13:37:24;99725.19;;;13.29;60.65
64683;BME280;51107;47.652;19.016;2023-02-21T13:40:04;99722.16;;;13.09;61.43
64683;BME280;51107;47.652;19.016;2023-02-21T13:42:37;99723.50;;;13.05;61.73
64683;BME280;51107;47.652;19.016;2023-02-21T13:45:18;99724.28;;;13.05;61.65
64683;BME280;51107;47.652;19.016;2023-02-21T13:55:36;99726.50;;;12.77;63.06
64683;BME280;51107;47.652;19.016;2023-02-21T14:13:47;99733.69;;;12.75;62.97
64683;BME280;51107;47.652;19.016;2023-02-21T14:17:03;99715.88;;;12.79;62.63
64683;BME280;51107;47.652;19.016;2023-02-21T14:19:08;99734.66;;;12.57;63.68
64683;BME280;51107;47.652;19.016;2023-02-21T14:21:43;99731.22;;;12.82;62.13
64683;BME280;51107;47.652;19.016;2023-02-21T14:24:15;99732.69;;;12.76;62.04
64683;BME280;51107;47.652;19.016;2023-02-21T14:26:53;99733.00;;;12.89;62.05
64683;BME280;51107;47.652;19.016;2023-02-21T14:29:39;99727.28;;;12.86;62.62
64683;BME280;51107;47.652;19.016;2023-02-21T14:42:59;99741.84;;;12.72;63.16
64683;BME280;51107;47.652;19.016;2023-02-21T15:08:20;99724.38;;;12.64;63.07
64683;BME280;51107;47.652;19.016;2023-02-21T15:10:58;99720.47;;;12.52;64.65
64683;BME280;51107;47.652;19.016;2023-02-21T15:13:31;99713.75;;;12.57;63.67
64683;BME280;51107;47.652;19.016;2023-02-21T15:16:04;99721.94;;;12.63;63.32
64683;BME280;51107;47.652;19.016;2023-02-21T15:18:35;99735.66;;;12.48;64.37
64683;BME280;51107;47.652;19.016;2023-02-21T15:23:45;99733.22;;;12.47;63.74
64683;BME280;51107;47.652;19.016;2023-02-21T15:26:25;99731.25;;;12.32;63.87
64683;BME280;51107;47.652;19.016;2023-02-21T15:29:13;99726.84;;;12.33;64.16
64683;BME280;51107;47.652;19.016;2023-02-21T15:31:49;99726.69;;;12.43;63.83
64683;BME280;51107;47.652;19.016;2023-02-21T15:39:48;99721.47;;;12.26;65.25
64683;BME280;51107;47.652;19.016;2023-02-21T15:42:20;99728.44;;;12.09;65.61
64683;BME280;51107;47.652;19.016;2023-02-21T15:45:02;99735.81;;;12.22;65.26
64683;BME280;51107;47.652;19.016;2023-02-21T15:47:32;99730.19;;;11.92;66.21
64683;BME280;51107;47.652;19.016;2023-02-21T15:52:47;99740.53;;;12.02;66.50
64683;BME280;51107;47.652;19.016;2023-02-21T15:58:12;99739.97;;;11.90;66.43
64683;BME280;51107;47.652;19.016;2023-02-21T16:00:47;99749.56;;;11.81;66.92
64683;BME280;51107;47.652;19.016;2023-02-21T16:03:43;99745.31;;;11.80;66.69
64683;BME280;51107;47.652;19.016;2023-02-21T16:06:28;99747.06;;;12.06;65.31
64683;BME280;51107;47.652;19.016;2023-02-21T16:11:44;99755.19;;;11.95;65.89
64683;BME280;51107;47.652;19.016;2023-02-21T16:17:28;99759.16;;;11.64;67.31
64683;BME280;51107;47.652;19.016;2023-02-21T16:22:46;99764.44;;;11.38;68.19
64683;BME280;51107;47.652;19.016;2023-02-21T16:25:57;99762.09;;;11.61;67.46
64683;BME280;51107;47.652;19.016;2023-02-21T16:28:27;99763.72;;;11.70;66.90
64683;BME280;51107;47.652;19.016;2023-02-21T16:30:59;99763.06;;;11.60;67.67
64683;BME280;51107;47.652;19.016;2023-02-21T16:33:28;99768.78;;;11.29;68.26